Time;durP1;ratioP1;P1;durP2;ratioP2;P2;SDS_P1;SDS_P2;PMS_P1;PMS_P2;Temp;Humidity;BMP_temperature;BMP_pressure;BME280_temperature;BME280_humidity;BME280_pressure;Samples;Min_cycle;Max_cycle;Signal;HPM_P1;HPM_P2
2022/09/14 00:01:08;;;;;;;0.10;0.10;;;12.80;99.90;;;;;;5050791;28;20436;-83
2022/09/14 00:03:35;;;;;;;0.13;0.13;;;12.80;99.90;;;;;;5050791;28;20041;-84
2022/09/14 00:06:11;;;;;;;0.10;0.08;;;12.80;99.90;;;;;;5050993;28;20379;-84
2022/09/14 00:08:37;;;;;;;;;;;12.90;99.90;;;;;;5051385;28;20084;-83
2022/09/14 00:11:07;;;;;;;0.00;0.00;;;12.80;99.90;;;;;;5034186;28;19921;-83
2022/09/14 00:13:35;;;;;;;0.10;0.10;;;12.90;99.90;;;;;;5084074;28;20037;-83
2022/09/14 00:16:07;;;;;;;0.10;0.10;;;13.00;99.90;;;;;;5050440;28;20075;-83
2022/09/14 00:18:34;;;;;;;0.00;0.00;;;13.00;99.90;;;;;;5083565;28;20409;-84
2022/09/14 00:21:06;;;;;;;0.13;0.13;;;13.00;99.90;;;;;;5050206;28;20045;-83
2022/09/14 00:23:38;;;;;;;0.75;0.20;;;13.00;99.90;;;;;;5051424;28;20053;-84
2022/09/14 00:26:13;;;;;;;0.10;0.10;;;13.10;99.90;;;;;;5050171;28;20041;-84
2022/09/14 00:28:45;;;;;;;0.08;0.08;;;13.10;99.90;;;;;;5067104;28;20077;-84
2022/09/14 00:31:12;;;;;;;0.10;0.10;;;13.10;99.90;;;;;;5066855;28;20586;-83
2022/09/14 00:33:41;;;;;;;0.32;0.20;;;13.10;99.90;;;;;;5066999;28;20409;-84
2022/09/14 00:36:14;;;;;;;0.08;0.08;;;13.10;99.90;;;;;;5066635;28;20501;-83
2022/09/14 00:38:41;;;;;;;0.13;0.13;;;13.10;99.90;;;;;;5066696;28;20853;-83
2022/09/14 00:41:13;;;;;;;0.20;0.20;;;13.20;99.90;;;;;;5050131;28;20056;-83
2022/09/14 00:43:57;;;;;;;0.10;0.10;;;13.20;99.90;;;;;;5066660;28;20132;-83
2022/09/14 00:46:26;;;;;;;0.10;0.10;;;13.20;99.90;;;;;;5083180;28;20046;-84
2022/09/14 00:48:54;;;;;;;0.40;0.10;;;13.20;99.90;;;;;;5050147;28;20402;-83
2022/09/14 00:51:21;;;;;;;0.10;0.10;;;13.20;99.90;;;;;;5050302;28;20044;-84
2022/09/14 00:53:48;;;;;;;0.60;0.10;;;13.30;99.90;;;;;;5050181;28;20041;-83
2022/09/14 00:56:15;;;;;;;0.00;0.00;;;13.30;99.90;;;;;;5050051;28;20044;-83
2022/09/14 00:58:46;;;;;;;0.05;0.05;;;13.30;99.90;;;;;;5050245;28;20045;-84
2022/09/14 01:01:13;;;;;;;0.10;0.10;;;13.30;99.90;;;;;;5049450;28;20042;-84
2022/09/14 01:03:40;;;;;;;0.10;0.10;;;13.30;99.90;;;;;;5066400;28;20172;-83
2022/09/14 01:06:32;;;;;;;0.03;0.00;;;13.30;99.90;;;;;;5033124;28;20124;-84
2022/09/14 01:09:17;;;;;;;0.00;0.00;;;13.20;99.90;;;;;;5066051;28;20041;-84
2022/09/14 01:11:55;;;;;;;0.00;0.00;;;13.20;99.90;;;;;;5049667;28;20144;-84
2022/09/14 01:14:43;;;;;;;0.08;0.08;;;13.20;99.90;;;;;;5049152;28;20571;-84
2022/09/14 01:17:16;;;;;;;0.00;0.00;;;13.20;99.90;;;;;;5049638;28;20041;-83
2022/09/14 01:20:00;;;;;;;0.08;0.08;;;13.20;99.90;;;;;;5049697;28;20044;-84
2022/09/14 01:22:47;;;;;;;0.10;0.10;;;13.20;99.90;;;;;;5082691;28;20501;-84
2022/09/14 01:26:01;;;;;;;0.10;0.10;;;13.20;99.90;;;;;;5065508;28;20048;-83
2022/09/14 01:28:40;;;;;;;0.03;0.03;;;13.10;99.90;;;;;;5020904;28;20517;-84
2022/09/14 01:31:19;;;;;;;0.00;0.00;;;13.10;99.90;;;;;;5065198;28;20040;-83
2022/09/14 01:33:53;;;;;;;0.10;0.10;;;13.00;99.90;;;;;;5049306;28;20041;-83
2022/09/14 01:36:22;;;;;;;0.22;0.20;;;13.00;99.90;;;;;;5082015;28;20577;-84
2022/09/14 01:38:51;;;;;;;0.38;0.20;;;12.90;99.90;;;;;;5065833;28;20433;-84
2022/09/14 01:41:22;;;;;;;0.22;0.17;;;12.90;99.90;;;;;;5081814;28;20137;-84
2022/09/14 01:43:55;;;;;;;0.05;0.05;;;12.90;99.90;;;;;;5065587;28;20050;-83
2022/09/14 01:46:28;;;;;;;0.10;0.10;;;12.90;99.90;;;;;;5048895;28;20466;-83
2022/09/14 01:49:02;;;;;;;0.10;0.10;;;12.80;99.90;;;;;;5049324;28;20038;-84
2022/09/14 01:51:46;;;;;;;0.20;0.10;;;12.90;99.90;;;;;;5048923;28;20478;-83
2022/09/14 01:54:45;;;;;;;0.00;0.00;;;12.90;99.90;;;;;;5048822;28;20072;-83
2022/09/14 01:57:23;;;;;;;0.10;0.10;;;12.90;99.90;;;;;;5037414;28;20104;-84
2022/09/14 01:59:55;;;;;;;0.10;0.10;;;12.90;99.90;;;;;;5029330;28;20046;-84
2022/09/14 02:02:29;;;;;;;1.08;0.13;;;12.90;99.90;;;;;;5041265;28;20157;-84
2022/09/14 02:05:22;;;;;;;0.00;0.00;;;13.00;99.90;;;;;;5042874;28;20472;-84
2022/09/14 02:07:49;;;;;;;0.82;0.35;;;13.00;99.90;;;;;;4999886;28;20560;-84
2022/09/14 02:10:18;;;;;;;0.10;0.10;;;13.00;99.90;;;;;;5012286;28;20092;-83
2022/09/14 02:12:45;;;;;;;0.00;0.00;;;13.00;99.90;;;;;;5032111;28;20077;-83
2022/09/14 02:15:14;;;;;;;0.10;0.10;;;13.00;99.90;;;;;;5048676;28;20515;-83
2022/09/14 02:17:42;;;;;;;0.10;0.10;;;13.00;99.90;;;;;;5049125;28;20493;-83
2022/09/14 02:20:20;;;;;;;0.75;0.45;;;13.00;99.90;;;;;;5032322;28;20151;-83
2022/09/14 02:22:48;;;;;;;0.10;0.10;;;13.00;99.90;;;;;;5065320;28;20076;-83
2022/09/14 02:25:15;;;;;;;0.20;0.10;;;13.00;99.90;;;;;;5048978;28;20041;-84
2022/09/14 02:27:42;;;;;;;0.22;0.17;;;13.00;99.90;;;;;;5048859;28;20037;-83
2022/09/14 02:30:09;;;;;;;0.10;0.10;;;13.00;99.90;;;;;;5048554;28;20037;-83
2022/09/14 02:32:57;;;;;;;0.35;0.28;;;12.90;99.90;;;;;;5048908;28;20413;-83
2022/09/14 02:35:55;;;;;;;0.40;0.17;;;13.00;99.90;;;;;;5081702;28;20440;-83
2022/09/14 02:39:00;;;;;;;0.30;0.13;;;13.00;99.90;;;;;;5036797;28;20140;-83
2022/09/14 02:42:02;;;;;;;0.10;0.10;;;12.90;99.90;;;;;;5052697;28;20049;-83
2022/09/14 02:44:41;;;;;;;0.25;0.15;;;12.90;99.90;;;;;;5028622;28;20062;-83
2022/09/14 02:47:42;;;;;;;0.10;0.10;;;13.00;99.90;;;;;;5048920;28;20045;-83
2022/09/14 02:50:27;;;;;;;0.15;0.15;;;13.00;99.90;;;;;;5049263;28;20398;-84
2022/09/14 02:52:58;;;;;;;0.10;0.10;;;13.00;99.90;;;;;;5065664;28;20082;-83
2022/09/14 02:55:32;;;;;;;0.15;0.15;;;13.00;99.90;;;;;;5056734;28;20048;-84
2022/09/14 02:58:03;;;;;;;0.30;0.20;;;13.00;99.90;;;;;;5052423;28;20072;-83
2022/09/14 03:00:37;;;;;;;0.10;0.10;;;13.00;99.90;;;;;;5052178;28;20523;-84
2022/09/14 03:03:05;;;;;;;0.05;0.05;;;13.10;99.90;;;;;;5068947;28;20047;-83
2022/09/14 03:05:33;;;;;;;0.20;0.20;;;13.20;99.90;;;;;;5068171;28;20038;-83
2022/09/14 03:08:00;;;;;;;0.13;0.00;;;13.10;99.90;;;;;;5035719;28;20490;-84
2022/09/14 03:10:27;;;;;;;0.10;0.10;;;13.10;99.90;;;;;;5068174;28;20184;-84
2022/09/14 03:12:54;;;;;;;0.10;0.10;;;13.10;99.90;;;;;;5052068;28;20041;-84
2022/09/14 03:15:20;;;;;;;0.15;0.15;;;13.20;99.90;;;;;;5035412;28;20405;-83
2022/09/14 03:17:48;;;;;;;0.10;0.10;;;13.20;99.90;;;;;;5052245;28;20527;-84
2022/09/14 03:20:20;;;;;;;0.10;0.10;;;13.20;99.90;;;;;;5068705;28;20071;-83
2022/09/14 03:22:46;;;;;;;0.10;0.10;;;13.20;99.90;;;;;;5051969;28;20675;-83
2022/09/14 03:25:13;;;;;;;0.10;0.10;;;13.20;99.90;;;;;;5051543;28;20042;-83
2022/09/14 03:27:40;;;;;;;0.40;0.25;;;13.20;99.90;;;;;;5035237;28;20128;-84
2022/09/14 03:30:07;;;;;;;0.15;0.10;;;13.20;99.90;;;;;;5085013;28;20036;-83
2022/09/14 03:32:34;;;;;;;0.10;0.10;;;13.20;99.90;;;;;;5035383;28;20124;-83
2022/09/14 03:35:01;;;;;;;0.10;0.10;;;13.30;99.90;;;;;;5035520;28;20872;-83
2022/09/14 03:37:27;;;;;;;0.00;0.00;;;13.20;99.90;;;;;;5051259;28;20048;-84
2022/09/14 03:39:54;;;;;;;0.00;0.00;;;13.30;99.90;;;;;;5051790;28;20103;-84
2022/09/14 03:42:21;;;;;;;0.00;0.00;;;13.30;99.90;;;;;;5034857;28;20045;-84
2022/09/14 03:44:47;;;;;;;0.20;0.20;;;13.30;99.90;;;;;;5084443;28;20480;-84
2022/09/14 03:47:14;;;;;;;0.00;0.00;;;13.30;99.90;;;;;;5031546;28;20414;-83
2022/09/14 03:49:41;;;;;;;0.25;0.17;;;13.30;99.90;;;;;;4998821;28;20045;-83
2022/09/14 03:52:07;;;;;;;0.22;0.13;;;13.30;99.90;;;;;;5015214;28;20042;-84
2022/09/14 03:54:34;;;;;;;0.00;0.00;;;13.30;99.90;;;;;;5014970;28;20045;-83
2022/09/14 03:57:01;;;;;;;0.20;0.10;;;13.40;99.90;;;;;;5031439;28;20046;-83
2022/09/14 03:59:27;;;;;;;0.30;0.22;;;13.30;99.90;;;;;;5014841;28;20049;-84
2022/09/14 04:01:54;;;;;;;0.05;0.05;;;13.30;99.90;;;;;;4999095;28;20077;-84
2022/09/14 04:04:21;;;;;;;0.20;0.20;;;13.30;99.90;;;;;;4998750;28;20046;-83
2022/09/14 04:06:47;;;;;;;0.20;0.20;;;13.30;99.90;;;;;;4999132;28;20445;-83
2022/09/14 04:09:14;;;;;;;0.00;0.00;;;13.30;99.90;;;;;;4999135;28;20048;-85
2022/09/14 04:11:41;;;;;;;0.00;0.00;;;13.30;99.90;;;;;;5014565;28;20069;-83
2022/09/14 04:14:07;;;;;;;0.10;0.10;;;13.40;99.90;;;;;;5015042;28;20052;-84
2022/09/14 04:16:34;;;;;;;0.10;0.10;;;13.40;99.90;;;;;;5030855;28;20100;-84
2022/09/14 04:19:01;;;;;;;0.00;0.00;;;13.40;99.90;;;;;;5015001;28;20045;-84
2022/09/14 04:21:28;;;;;;;0.52;0.30;;;13.40;99.90;;;;;;5047075;28;20042;-83
2022/09/14 04:23:56;;;;;;;0.00;0.00;;;13.40;99.90;;;;;;4998645;28;20048;-83
2022/09/14 04:26:30;;;;;;;0.10;0.10;;;13.40;99.90;;;;;;5030778;28;20084;-83
2022/09/14 04:28:57;;;;;;;0.00;0.00;;;13.40;99.90;;;;;;5041822;28;20408;-84
2022/09/14 04:31:24;;;;;;;0.10;0.10;;;13.40;99.90;;;;;;5034201;28;20125;-83
2022/09/14 04:33:55;;;;;;;0.57;0.15;;;13.40;99.90;;;;;;5067050;28;20477;-84
2022/09/14 04:36:27;;;;;;;0.10;0.10;;;13.40;99.90;;;;;;5050613;28;20045;-84
2022/09/14 04:38:55;;;;;;;0.10;0.10;;;13.50;99.90;;;;;;5051007;28;20063;-83
2022/09/14 04:41:23;;;;;;;0.10;0.10;;;13.40;99.90;;;;;;5050659;28;20076;-83
2022/09/14 04:43:51;;;;;;;0.00;0.00;;;13.50;99.90;;;;;;5049970;28;20046;-84
2022/09/14 04:46:20;;;;;;;0.00;0.00;;;13.40;99.90;;;;;;5050439;28;20375;-83
2022/09/14 04:48:48;;;;;;;0.10;0.10;;;13.40;99.90;;;;;;5049805;28;20037;-83
2022/09/14 04:51:26;;;;;;;0.25;0.13;;;13.50;99.90;;;;;;5050182;28;20531;-83
2022/09/14 04:53:55;;;;;;;0.13;0.10;;;13.50;99.90;;;;;;5049479;28;20068;-83
2022/09/14 04:56:23;;;;;;;0.00;0.00;;;13.50;99.90;;;;;;5049926;28;20051;-84
2022/09/14 04:58:52;;;;;;;0.55;0.38;;;13.50;99.90;;;;;;5049516;28;20049;-83
2022/09/14 05:01:22;;;;;;;0.00;0.00;;;13.50;99.90;;;;;;5081641;28;20050;-84
2022/09/14 05:03:49;;;;;;;0.28;0.10;;;13.50;99.90;;;;;;5049294;28;20183;-83
2022/09/14 05:06:19;;;;;;;0.00;0.00;;;13.50;99.90;;;;;;5049142;28;20124;-83
2022/09/14 05:08:46;;;;;;;0.10;0.10;;;13.50;99.90;;;;;;5049249;28;20446;-84
2022/09/14 05:11:24;;;;;;;0.40;0.13;;;13.50;99.90;;;;;;5049207;28;20187;-84
2022/09/14 05:13:51;;;;;;;0.10;0.10;;;13.50;99.90;;;;;;5082156;28;20053;-84
2022/09/14 05:16:21;;;;;;;0.00;0.00;;;13.60;99.90;;;;;;5033420;28;20110;-83
2022/09/14 05:18:49;;;;;;;0.10;0.10;;;13.60;99.90;;;;;;5065406;28;20068;-84
2022/09/14 05:21:18;;;;;;;0.03;0.03;;;13.50;99.90;;;;;;5065679;28;20037;-83
2022/09/14 05:23:45;;;;;;;0.10;0.10;;;13.60;99.90;;;;;;5082631;28;20151;-83
2022/09/14 05:26:12;;;;;;;0.10;0.10;;;13.60;99.90;;;;;;5049506;28;20490;-84
2022/09/14 05:28:40;;;;;;;0.05;0.05;;;13.60;99.90;;;;;;5049316;28;20037;-83
2022/09/14 05:31:08;;;;;;;0.10;0.10;;;13.60;99.90;;;;;;5049726;28;20083;-84
2022/09/14 05:33:36;;;;;;;0.20;0.10;;;13.60;99.90;;;;;;5066179;28;20037;-84
2022/09/14 05:36:07;;;;;;;0.10;0.10;;;13.60;99.90;;;;;;5066758;28;20041;-83
2022/09/14 05:38:36;;;;;;;0.00;0.00;;;13.60;99.90;;;;;;5055992;28;20128;-83
2022/09/14 05:41:04;;;;;;;0.32;0.20;;;13.60;99.90;;;;;;5049170;28;20049;-84
2022/09/14 05:43:31;;;;;;;0.10;0.10;;;13.60;99.90;;;;;;5032650;28;20037;-83
2022/09/14 05:46:02;;;;;;;0.03;0.03;;;13.60;99.90;;;;;;5048750;28;20476;-83
2022/09/14 05:48:34;;;;;;;0.10;0.10;;;13.60;99.90;;;;;;5049399;28;20038;-83
2022/09/14 05:51:15;;;;;;;0.10;0.10;;;13.60;99.90;;;;;;5048900;28;20923;-84
2022/09/14 05:53:49;;;;;;;0.03;0.03;;;13.70;99.90;;;;;;5048902;28;20038;-84
2022/09/14 05:56:17;;;;;;;0.00;0.00;;;13.70;99.90;;;;;;5041620;28;20041;-83
2022/09/14 05:58:45;;;;;;;0.08;0.08;;;13.70;99.90;;;;;;5042635;28;20048;-84
2022/09/14 06:01:20;;;;;;;0.10;0.10;;;13.70;99.90;;;;;;5042120;28;20093;-84
2022/09/14 06:03:48;;;;;;;0.10;0.10;;;13.80;99.90;;;;;;5041552;28;20045;-84
2022/09/14 06:06:17;;;;;;;0.10;0.10;;;13.80;99.90;;;;;;5044621;28;20034;-84
2022/09/14 06:08:44;;;;;;;0.08;0.08;;;13.90;99.90;;;;;;5037041;28;20111;-84
2022/09/14 06:11:17;;;;;;;0.10;0.10;;;14.00;99.90;;;;;;5044621;28;20049;-83
2022/09/14 06:13:45;;;;;;;0.10;0.10;;;13.90;99.90;;;;;;5052906;28;20045;-83
2022/09/14 06:16:17;;;;;;;0.15;0.15;;;14.00;99.90;;;;;;5030652;28;20038;-84
2022/09/14 06:18:45;;;;;;;0.10;0.10;;;14.00;99.90;;;;;;5033785;28;20398;-84
2022/09/14 06:21:15;;;;;;;0.08;0.08;;;14.00;99.90;;;;;;5044236;28;20042;-84
2022/09/14 06:23:43;;;;;;;0.55;0.30;;;14.00;99.90;;;;;;5069016;28;20041;-84
2022/09/14 06:26:10;;;;;;;0.17;0.10;;;14.10;99.90;;;;;;5069143;28;20095;-83
2022/09/14 06:28:38;;;;;;;0.10;0.10;;;14.10;99.90;;;;;;5040635;28;20721;-85
2022/09/14 06:31:06;;;;;;;0.45;0.08;;;14.10;99.90;;;;;;5052288;28;20086;-85
2022/09/14 06:33:34;;;;;;;0.05;0.05;;;14.10;99.90;;;;;;5052540;28;20060;-85
2022/09/14 06:36:08;;;;;;;0.30;0.20;;;14.20;99.90;;;;;;5052671;28;20033;-85
2022/09/14 06:38:35;;;;;;;0.00;0.00;;;14.20;99.90;;;;;;5052522;28;20044;-85
2022/09/14 06:41:04;;;;;;;0.30;0.20;;;14.30;99.90;;;;;;5052442;28;20041;-84
2022/09/14 06:43:33;;;;;;;0.20;0.10;;;14.40;99.90;;;;;;5052827;28;20038;-85
2022/09/14 06:46:31;;;;;;;0.00;0.00;;;14.50;99.90;;;;;;5052134;28;20037;-85
2022/09/14 06:49:06;;;;;;;0.10;0.10;;;14.50;99.90;;;;;;5051988;28;20132;-85
2022/09/14 06:51:35;;;;;;;0.10;0.05;;;14.60;99.90;;;;;;5052505;28;20041;-85
2022/09/14 06:54:03;;;;;;;0.00;0.00;;;14.70;99.90;;;;;;5051684;28;20052;-85
2022/09/14 06:56:32;;;;;;;0.00;0.00;;;14.70;99.90;;;;;;5031355;28;20044;-84
2022/09/14 06:58:59;;;;;;;0.13;0.10;;;14.80;99.90;;;;;;5041317;28;20058;-85
2022/09/14 07:01:26;;;;;;;0.00;0.00;;;14.90;99.90;;;;;;5023845;28;20446;-84
2022/09/14 07:03:53;;;;;;;0.10;0.10;;;15.00;99.90;;;;;;5055486;28;20048;-84
2022/09/14 07:06:25;;;;;;;0.10;0.10;;;15.10;99.90;;;;;;5051743;28;20545;-83
2022/09/14 07:08:52;;;;;;;0.05;0.05;;;15.10;99.90;;;;;;5051355;28;20517;-84
2022/09/14 07:11:22;;;;;;;0.17;0.10;;;15.20;99.90;;;;;;5068291;28;20686;-84
2022/09/14 07:13:49;;;;;;;0.17;0.10;;;15.20;99.90;;;;;;5068117;28;20056;-83
2022/09/14 07:16:16;;;;;;;0.10;0.10;;;15.30;99.90;;;;;;5025118;28;20037;-84
2022/09/14 07:18:44;;;;;;;0.20;0.10;;;15.30;99.90;;;;;;5037837;28;20041;-85
2022/09/14 07:21:14;;;;;;;0.10;0.10;;;15.40;99.90;;;;;;5040824;28;20045;-84
2022/09/14 07:23:46;;;;;;;0.20;0.17;;;15.50;99.90;;;;;;5056079;28;20045;-84
2022/09/14 07:26:19;;;;;;;0.00;0.00;;;15.60;99.90;;;;;;5049239;28;20069;-84
2022/09/14 07:28:48;;;;;;;0.17;0.05;;;15.60;99.90;;;;;;5047564;28;20034;-85
2022/09/14 07:31:18;;;;;;;0.10;0.10;;;15.70;99.90;;;;;;5060694;28;20041;-85
2022/09/14 07:33:45;;;;;;;0.10;0.10;;;15.80;99.90;;;;;;5050753;28;20033;-86
2022/09/14 07:36:13;;;;;;;0.00;0.00;;;15.80;99.90;;;;;;5031913;28;20045;-85
2022/09/14 07:38:40;;;;;;;0.00;0.00;;;15.80;99.90;;;;;;5031853;28;20088;-86
2022/09/14 07:41:07;;;;;;;0.00;0.00;;;15.90;99.90;;;;;;5032556;28;20113;-85
2022/09/14 07:43:34;;;;;;;0.00;0.00;;;15.90;99.90;;;;;;5032598;28;20087;-84
2022/09/14 07:46:03;;;;;;;0.00;0.00;;;16.00;99.90;;;;;;5045489;28;20030;-85
2022/09/14 07:48:34;;;;;;;0.10;0.10;;;16.00;99.90;;;;;;5049225;28;20037;-85
2022/09/14 07:51:04;;;;;;;0.00;0.00;;;16.10;99.90;;;;;;5047695;28;20037;-85
2022/09/14 07:53:31;;;;;;;4.78;0.32;;;16.20;99.90;;;;;;5054421;28;20645;-84
2022/09/14 07:56:01;;;;;;;0.10;0.10;;;16.20;99.90;;;;;;5047892;28;20048;-84
2022/09/14 07:58:28;;;;;;;0.00;0.00;;;16.30;99.90;;;;;;5034758;28;20081;-84
2022/09/14 08:01:06;;;;;;;0.22;0.20;;;16.40;99.90;;;;;;5029679;28;20037;-84
2022/09/14 08:03:38;;;;;;;0.15;0.10;;;16.50;99.90;;;;;;5044551;28;20037;-84
2022/09/14 08:06:18;;;;;;;0.00;0.00;;;16.50;99.90;;;;;;5054349;28;20041;-85
2022/09/14 08:08:48;;;;;;;0.00;0.00;;;16.50;99.90;;;;;;5050963;28;20040;-84
2022/09/14 08:11:22;;;;;;;0.20;0.15;;;16.60;99.90;;;;;;5049869;28;20053;-84
2022/09/14 08:13:55;;;;;;;0.00;0.00;;;16.60;99.90;;;;;;5050902;28;20045;-85
2022/09/14 08:16:23;;;;;;;0.10;0.10;;;16.70;99.90;;;;;;5049781;28;20037;-84
2022/09/14 08:19:00;;;;;;;0.00;0.00;;;16.70;99.90;;;;;;5042031;28;20040;-85
2022/09/14 08:21:28;;;;;;;0.00;0.00;;;16.80;99.90;;;;;;5047495;28;20072;-85
2022/09/14 08:24:00;;;;;;;0.00;0.00;;;16.90;99.90;;;;;;5032939;28;20465;-84
2022/09/14 08:26:27;;;;;;;0.00;0.00;;;16.90;99.90;;;;;;5034071;28;20452;-84
2022/09/14 08:28:55;;;;;;;0.00;0.00;;;16.90;99.90;;;;;;5079209;28;20120;-84
2022/09/14 08:31:24;;;;;;;0.52;0.22;;;17.00;99.90;;;;;;5050060;28;20152;-83
2022/09/14 08:33:56;;;;;;;0.00;0.00;;;17.00;99.90;;;;;;5050906;28;20042;-84
2022/09/14 08:36:25;;;;;;;0.90;0.57;;;17.10;99.90;;;;;;5065865;28;20040;-84
2022/09/14 08:38:52;;;;;;;0.05;0.05;;;17.10;99.90;;;;;;5067659;28;20072;-83
2022/09/14 08:41:53;;;;;;;0.30;0.20;;;17.20;99.90;;;;;;5067811;28;20037;-84
2022/09/14 08:44:44;;;;;;;0.00;0.00;;;17.30;99.90;;;;;;5051658;28;20124;-83
2022/09/14 08:47:12;;;;;;;0.25;0.10;;;17.40;99.90;;;;;;5051042;28;20103;-83
2022/09/14 08:49:47;;;;;;;0.00;0.00;;;17.50;99.90;;;;;;5052544;28;20039;-82
2022/09/14 08:52:28;;;;;;;0.00;0.00;;;17.50;99.90;;;;;;5051258;28;20041;-85
2022/09/14 08:54:57;;;;;;;0.17;0.08;;;17.50;99.90;;;;;;5051149;28;20040;-82
2022/09/14 08:57:26;;;;;;;0.10;0.00;;;17.50;99.90;;;;;;5035648;28;20042;-83
2022/09/14 09:00:12;;;;;;;0.03;0.03;;;17.50;99.90;;;;;;5067727;28;20063;-82
2022/09/14 09:02:38;;;;;;;0.00;0.00;;;17.50;99.90;;;;;;5051742;28;20136;-83
2022/09/14 09:05:32;;;;;;;0.00;0.00;;;17.50;99.90;;;;;;5050891;28;20132;-82
2022/09/14 09:08:18;;;;;;;0.00;0.00;;;17.60;99.90;;;;;;5049914;28;20413;-83
2022/09/14 09:10:46;;;;;;;0.10;0.10;;;17.70;99.90;;;;;;5049287;28;20058;-83
2022/09/14 09:13:18;;;;;;;0.10;0.00;;;17.70;99.90;;;;;;5041836;28;20045;-82
2022/09/14 09:15:53;;;;;;;0.20;0.03;;;17.70;99.90;;;;;;5050752;28;20045;-83
2022/09/14 09:18:46;;;;;;;0.10;0.10;;;17.80;99.90;;;;;;5083423;28;20140;-83
2022/09/14 09:21:15;;;;;;;3.83;0.45;;;17.80;99.90;;;;;;5049850;28;20524;-82
2022/09/14 09:23:42;;;;;;;0.20;0.10;;;17.90;99.90;;;;;;5050052;28;20042;-84
2022/09/14 09:26:22;;;;;;;0.98;0.80;;;17.90;99.90;;;;;;5053065;28;20045;-85
2022/09/14 09:28:53;;;;;;;0.10;0.10;;;17.90;99.90;;;;;;5045136;28;20091;-85
2022/09/14 09:31:31;;;;;;;0.00;0.00;;;18.00;99.90;;;;;;5032904;28;20044;-83
2022/09/14 09:33:57;;;;;;;0.10;0.10;;;18.20;99.90;;;;;;5046058;28;20038;-85
2022/09/14 09:36:32;;;;;;;1.85;0.45;;;18.40;99.90;;;;;;5034466;28;20095;-85
2022/09/14 09:38:59;;;;;;;0.20;0.10;;;18.60;99.90;;;;;;5049380;28;20048;-85
2022/09/14 09:41:30;;;;;;;0.10;0.10;;;18.80;99.90;;;;;;5065352;28;20042;-85
2022/09/14 09:44:10;;;;;;;0.00;0.00;;;19.00;99.90;;;;;;5065549;28;20049;-86
2022/09/14 09:46:50;;;;;;;0.00;0.00;;;19.00;99.90;;;;;;5047350;28;20486;-86
2022/09/14 09:49:36;;;;;;;0.13;0.10;;;19.20;99.90;;;;;;5048947;28;20060;-86
2022/09/14 09:52:08;;;;;;;0.17;0.05;;;19.30;99.90;;;;;;5082065;28;20052;-85
2022/09/14 09:54:38;;;;;;;0.00;0.00;;;19.20;99.90;;;;;;5049509;28;20042;-86
2022/09/14 09:57:31;;;;;;;0.10;0.10;;;19.30;99.90;;;;;;5049158;28;20038;-85
2022/09/14 10:00:16;;;;;;;0.00;0.00;;;19.40;99.90;;;;;;5049551;28;20090;-86
2022/09/14 10:02:43;;;;;;;0.90;0.10;;;19.50;99.90;;;;;;5049840;28;20068;-86
2022/09/14 10:05:10;;;;;;;0.63;0.15;;;19.60;99.90;;;;;;5032834;28;20077;-86
2022/09/14 10:07:54;;;;;;;1.55;0.32;;;19.60;99.90;;;;;;5050098;28;20084;-87
2022/09/14 10:10:42;;;;;;;0.00;0.00;;;19.70;99.90;;;;;;5065778;28;20045;-86
2022/09/14 10:13:24;;;;;;;0.38;0.17;;;19.70;99.90;;;;;;5049097;28;20096;-86
2022/09/14 10:16:14;;;;;;;0.10;0.10;;;19.80;99.90;;;;;;5049929;28;20509;-86
2022/09/14 10:18:47;;;;;;;0.17;0.10;;;19.70;99.90;;;;;;5049666;28;20049;-86
2022/09/14 10:21:24;;;;;;;0.10;0.10;;;19.70;99.90;;;;;;5048926;28;20051;-86
2022/09/14 10:24:14;;;;;;;0.10;0.10;;;19.70;99.90;;;;;;5082742;28;20049;-86
2022/09/14 10:26:41;;;;;;;0.10;0.10;;;19.70;99.90;;;;;;5037373;28;20049;-87
2022/09/14 10:29:34;;;;;;;0.00;0.00;;;19.60;99.90;;;;;;5049246;28;20469;-85
2022/09/14 10:32:24;;;;;;;1.55;0.15;;;19.60;99.90;;;;;;5049192;28;20041;-86
2022/09/14 10:34:51;;;;;;;0.00;0.00;;;19.60;99.90;;;;;;5032933;28;20041;-87
2022/09/14 10:37:28;;;;;;;0.00;0.00;;;19.60;99.90;;;;;;5048953;28;20041;-86
2022/09/14 10:40:24;;;;;;;0.10;0.10;;;19.60;99.90;;;;;;5049275;28;20045;-86
2022/09/14 10:43:01;;;;;;;0.30;0.20;;;19.50;99.90;;;;;;5049307;28;20095;-86
2022/09/14 10:45:34;;;;;;;0.10;0.10;;;19.40;99.90;;;;;;5048645;28;20033;-86
2022/09/14 10:48:25;;;;;;;0.10;0.10;;;19.30;99.90;;;;;;5033035;28;20120;-86
2022/09/14 10:51:24;;;;;;;0.10;0.10;;;19.20;99.90;;;;;;5049304;28;20045;-86
2022/09/14 10:54:00;;;;;;;1.02;0.25;;;19.20;99.90;;;;;;5049157;28;20037;-87
2022/09/14 10:56:53;;;;;;;0.10;0.10;;;19.20;99.90;;;;;;5048738;28;20042;-86
2022/09/14 10:59:31;;;;;;;0.10;0.10;;;19.10;99.90;;;;;;5049014;28;20087;-87
2022/09/14 11:02:18;;;;;;;0.25;0.13;;;19.10;99.90;;;;;;5052817;28;20042;-87
2022/09/14 11:04:45;;;;;;;0.25;0.20;;;19.10;99.90;;;;;;5052948;28;20042;-87
2022/09/14 11:07:16;;;;;;;2.05;0.68;;;19.20;99.90;;;;;;5052930;28;20096;-87
2022/09/14 11:09:50;;;;;;;0.10;0.10;;;19.20;99.90;;;;;;5068977;28;20713;-87
2022/09/14 11:12:51;;;;;;;0.10;0.10;;;19.20;99.90;;;;;;5069161;28;20061;-87
2022/09/14 11:15:21;;;;;;;0.00;0.00;;;19.20;99.90;;;;;;5069205;28;20049;-86
2022/09/14 11:17:50;;;;;;;0.00;0.00;;;19.10;99.90;;;;;;5068937;28;20045;-86
2022/09/14 11:20:29;;;;;;;0.00;0.00;;;19.10;99.90;;;;;;5068644;28;20096;-86
2022/09/14 11:23:25;;;;;;;0.10;0.10;;;19.10;99.90;;;;;;5068986;28;20037;-86
2022/09/14 11:25:58;;;;;;;0.28;0.10;;;19.10;99.90;;;;;;5068349;28;20516;-86
2022/09/14 11:28:43;;;;;;;0.00;0.00;;;19.10;99.90;;;;;;5085102;28;20037;-86
2022/09/14 11:31:25;;;;;;;0.03;0.03;;;19.10;99.90;;;;;;5068800;28;20598;-86
2022/09/14 11:34:20;;;;;;;0.10;0.10;;;19.10;99.90;;;;;;5068812;28;20037;-86
2022/09/14 11:36:55;;;;;;;0.00;0.00;;;19.10;99.90;;;;;;5068571;28;20045;-86
2022/09/14 11:39:29;;;;;;;0.10;0.10;;;19.10;99.90;;;;;;5068086;28;20440;-87
2022/09/14 11:42:07;;;;;;;0.93;0.40;;;19.20;99.90;;;;;;5052190;28;20545;-87
2022/09/14 11:44:38;;;;;;;0.20;0.20;;;19.20;99.90;;;;;;5051559;28;20076;-86
2022/09/14 11:47:17;;;;;;;1.10;0.35;;;19.20;99.90;;;;;;5084905;28;20041;-86
2022/09/14 11:50:17;;;;;;;0.50;0.50;;;19.30;99.90;;;;;;5084859;28;20402;-86
2022/09/14 11:52:43;;;;;;;0.30;0.25;;;19.30;99.90;;;;;;5037152;28;20139;-86
2022/09/14 11:55:16;;;;;;;0.08;0.08;;;19.30;99.90;;;;;;5051877;28;20823;-87
2022/09/14 11:57:45;;;;;;;0.13;0.13;;;19.40;99.90;;;;;;5051578;28;20099;-86
2022/09/14 12:00:41;;;;;;;0.32;0.20;;;19.50;99.90;;;;;;5051736;28;20501;-86
2022/09/14 12:03:11;;;;;;;0.93;0.40;;;19.50;99.90;;;;;;5051738;28;20037;-87
2022/09/14 12:05:39;;;;;;;0.20;0.10;;;19.60;99.90;;;;;;5051062;28;20091;-87
2022/09/14 12:08:29;;;;;;;0.32;0.28;;;19.70;99.90;;;;;;5068254;28;20041;-87
2022/09/14 12:11:08;;;;;;;0.20;0.17;;;19.80;99.90;;;;;;5041299;28;20049;-86
2022/09/14 12:13:38;;;;;;;0.00;0.00;;;19.80;99.90;;;;;;5051247;28;20515;-86
2022/09/14 12:16:07;;;;;;;0.10;0.10;;;19.90;99.90;;;;;;5051519;28;20438;-87
2022/09/14 12:18:40;;;;;;;0.17;0.17;;;19.80;99.90;;;;;;5067579;28;20052;-87
2022/09/14 12:21:26;;;;;;;1.27;0.10;;;20.10;99.90;;;;;;5051431;28;20692;-87
2022/09/14 12:23:56;;;;;;;0.20;0.15;;;20.30;99.90;;;;;;5051030;28;20067;-87
2022/09/14 12:26:28;;;;;;;0.47;0.28;;;20.20;99.90;;;;;;5050898;28;20053;-86
2022/09/14 12:29:01;;;;;;;0.20;0.13;;;20.10;99.90;;;;;;5051486;28;20037;-87
2022/09/14 12:31:54;;;;;;;0.22;0.20;;;20.00;99.90;;;;;;5051038;28;20041;-87
2022/09/14 12:34:22;;;;;;;0.10;0.10;;;19.90;99.90;;;;;;5064694;28;20742;-86
2022/09/14 12:36:48;;;;;;;0.10;0.10;;;20.00;99.90;;;;;;5083703;28;20045;-87
2022/09/14 12:39:20;;;;;;;0.00;0.00;;;20.00;99.90;;;;;;5067625;28;20473;-87
2022/09/14 12:41:47;;;;;;;0.20;0.20;;;19.90;99.90;;;;;;5067170;28;20152;-86
2022/09/14 12:44:35;;;;;;;0.10;0.10;;;19.90;99.90;;;;;;5083814;28;20124;-87
2022/09/14 12:47:24;;;;;;;0.20;0.17;;;19.80;99.90;;;;;;5067051;28;20413;-86
2022/09/14 12:49:56;;;;;;;0.17;0.10;;;19.70;99.90;;;;;;5067188;28;20041;-86
2022/09/14 12:52:29;;;;;;;0.00;0.00;;;19.70;99.90;;;;;;5050939;28;20405;-87
2022/09/14 12:55:08;;;;;;;0.17;0.17;;;19.70;99.90;;;;;;5051071;28;20037;-87
2022/09/14 12:58:00;;;;;;;0.20;0.20;;;19.80;99.90;;;;;;5050800;28;20124;-87
2022/09/14 13:00:32;;;;;;;0.10;0.08;;;19.80;99.90;;;;;;5083525;28;20041;-86
2022/09/14 13:03:21;;;;;;;0.57;0.28;;;19.90;99.90;;;;;;5050836;28;20053;-87
2022/09/14 13:05:47;;;;;;;0.20;0.20;;;19.80;99.90;;;;;;5066575;28;20090;-87
2022/09/14 13:08:21;;;;;;;0.45;0.20;;;19.90;99.90;;;;;;5034003;28;20454;-87
2022/09/14 13:10:50;;;;;;;0.20;0.20;;;19.90;99.90;;;;;;5049948;28;20519;-87
2022/09/14 13:13:21;;;;;;;0.00;0.00;;;19.80;99.90;;;;;;5066132;28;20045;-83
2022/09/14 13:16:13;;;;;;;2.00;0.25;;;19.90;99.90;;;;;;5049616;28;20049;-84
2022/09/14 13:18:39;;;;;;;1.35;0.20;;;19.90;99.90;;;;;;5065437;28;20467;-84
2022/09/14 13:21:22;;;;;;;0.25;0.13;;;19.90;99.90;;;;;;5033264;28;20045;-84